EPKT/KTW METAR and TAF weather

Enter ICAO airport designator
Station Type Date Time Source
EPKT METAR 2018/04/21 21:00 UTC NOAA

EPKT 212100Z 35008KT CAVOK 16/06 Q1017


Station Type Date Time Source
EPKT Decoded METAR 2018/04/21 21:00 UTC NOAA

Katowice, Poland (EPKT) 50-14N 019-02E 284M
Apr 21, 2018 - 05:00 PM EDT / 2018.04.21 2100 UTC
Wind: from the N (350 degrees) at 9 MPH (8 KT):0
Visibility: greater than 7 mile(s):0
Temperature: 60 F (16 C)
Dew Point: 42 F (6 C)
Relative Humidity: 51%
Pressure (altimeter): 30.03 in. Hg (1017 hPa)
ob: EPKT 212100Z 35008KT CAVOK 16/06 Q1017
cycle: 21

Station Type Date Time Source
EPKT TAF 2018/04/21 18:33 UTC NOAA

TAF EPKT 211730Z 2118/2218 34010KT CAVOK
BECMG 2121/2124 VRB02KT


Example: see airport list